createdAt,value
2019-01-24T00:00:05.139Z,-6.11
2019-01-24T00:02:52.868Z,-6.10
2019-01-24T00:05:40.190Z,-6.24
2019-01-24T00:08:27.920Z,-6.28
2019-01-24T00:11:15.461Z,-6.27
2019-01-24T00:14:03.282Z,-6.29
2019-01-24T00:16:50.908Z,-6.24
2019-01-24T00:19:39.666Z,-6.30
2019-01-24T00:22:27.306Z,-6.41
2019-01-24T00:25:14.620Z,-6.48
2019-01-24T00:28:02.256Z,-6.49
2019-01-24T00:30:49.872Z,-6.57
2019-01-24T00:33:37.708Z,-6.61
2019-01-24T00:36:25.543Z,-6.57
2019-01-24T00:39:13.278Z,-6.50
2019-01-24T00:42:01.001Z,-6.57
2019-01-24T00:44:48.357Z,-6.24
2019-01-24T00:47:35.950Z,-5.98
2019-01-24T00:50:24.091Z,-5.71
2019-01-24T00:53:11.310Z,-5.39
2019-01-24T00:55:58.939Z,-4.97
2019-01-24T00:58:46.774Z,-4.84
2019-01-24T01:01:34.520Z,-4.69
2019-01-24T01:04:22.029Z,-4.71
2019-01-24T01:07:09.762Z,-4.93
2019-01-24T01:09:57.700Z,-5.06
2019-01-24T01:12:45.395Z,-5.60
2019-01-24T01:15:33.982Z,-5.93
2019-01-24T01:18:21.502Z,-6.05
2019-01-24T01:21:09.233Z,-6.45
2019-01-24T01:23:57.070Z,-6.44
2019-01-24T01:26:44.487Z,-6.22
2019-01-24T01:29:32.119Z,-6.30
2019-01-24T01:32:19.953Z,-6.23
2019-01-24T01:35:08.190Z,-6.30
2019-01-24T01:37:55.313Z,-6.25
2019-01-24T01:40:42.634Z,-6.07
2019-01-24T01:43:30.365Z,-5.78
2019-01-24T01:46:18.198Z,-5.73
2019-01-24T01:49:05.558Z,-5.83
2019-01-24T01:51:53.352Z,-6.21
2019-01-24T01:54:41.290Z,-6.25
2019-01-24T01:57:28.713Z,-6.02
2019-01-24T02:00:21.973Z,-5.96
2019-01-24T02:03:09.676Z,-6.00
2019-01-24T02:05:57.207Z,-6.11
2019-01-24T02:08:45.036Z,-6.34
2019-01-24T02:11:32.972Z,-6.41
2019-01-24T02:14:20.188Z,-6.50
2019-01-24T02:17:07.412Z,-6.21
2019-01-24T02:19:54.939Z,-6.24
2019-01-24T02:22:42.666Z,-6.04
2019-01-24T02:25:29.859Z,-6.09
2019-01-24T02:28:17.516Z,-5.95
2019-01-24T02:31:04.942Z,-5.71
2019-01-24T02:33:52.162Z,-5.46
2019-01-24T02:36:39.685Z,-5.48
2019-01-24T02:39:27.415Z,-5.78
2019-01-24T02:42:14.738Z,-5.50
2019-01-24T02:45:02.065Z,-5.24
2019-01-24T02:47:50.009Z,-5.54
2019-01-24T02:50:37.416Z,-5.45
2019-01-24T02:53:24.431Z,-5.39
2019-01-24T02:56:12.061Z,-5.53
2019-01-24T02:59:00.304Z,-5.56
2019-01-24T03:01:47.829Z,-5.26
2019-01-24T03:04:35.262Z,-5.42
2019-01-24T03:07:22.702Z,-4.97
2019-01-24T03:10:13.014Z,-4.62
2019-01-24T03:13:00.911Z,-4.44
2019-01-24T03:15:48.639Z,-4.88
2019-01-24T03:18:36.261Z,-4.96
2019-01-24T03:21:24.101Z,-4.90
2019-01-24T03:24:11.930Z,-5.01
2019-01-24T03:26:59.455Z,-5.39
2019-01-24T03:29:46.574Z,-5.30
2019-01-24T03:32:34.131Z,-4.88
2019-01-24T03:35:24.618Z,-4.73
2019-01-24T03:38:12.020Z,-4.52
2019-01-24T03:40:59.855Z,-4.51
2019-01-24T03:43:47.691Z,-4.59
2019-01-24T03:46:35.110Z,-4.70
2019-01-24T03:49:22.566Z,-4.79
2019-01-24T03:52:10.059Z,-4.38
2019-01-24T03:54:57.630Z,-4.50
2019-01-24T03:57:45.114Z,-4.43
2019-01-24T04:00:33.048Z,-4.30
2019-01-24T04:03:20.675Z,-4.55
2019-01-24T04:06:08.136Z,-4.23
2019-01-24T04:08:55.116Z,-4.06
2019-01-24T04:11:43.030Z,-3.81
2019-01-24T04:14:30.576Z,-4.28
2019-01-24T04:17:18.206Z,-4.02
2019-01-24T04:20:08.705Z,-3.56
2019-01-24T04:22:55.918Z,-3.11
2019-01-24T04:25:43.859Z,-2.79
2019-01-24T04:28:33.288Z,-2.56
2019-01-24T04:31:20.753Z,-2.62
2019-01-24T04:34:07.969Z,-2.46
2019-01-24T04:36:55.393Z,-2.33
2019-01-24T04:39:43.026Z,-2.09
2019-01-24T04:42:30.755Z,-2.11
2019-01-24T04:45:18.799Z,-1.92
2019-01-24T04:48:06.214Z,-2.08
2019-01-24T04:50:53.652Z,-2.83
2019-01-24T04:53:41.065Z,-2.98
2019-01-24T04:56:28.691Z,-2.57
2019-01-24T04:59:16.424Z,-2.48
2019-01-24T05:02:04.564Z,-2.25
2019-01-24T05:04:52.510Z,-2.53
2019-01-24T05:07:40.234Z,-3.15
2019-01-24T05:10:27.755Z,-3.00
2019-01-24T05:13:15.386Z,-2.87
2019-01-24T05:16:02.911Z,-2.79
2019-01-24T05:18:50.745Z,-2.68
2019-01-24T05:21:37.860Z,-2.93
2019-01-24T05:24:25.491Z,-2.80
2019-01-24T05:27:13.426Z,-2.84
2019-01-24T05:30:01.063Z,-2.70
2019-01-24T05:32:48.581Z,-3.08
2019-01-24T05:35:36.008Z,-2.49
2019-01-24T05:38:24.041Z,-2.45
2019-01-24T05:41:11.364Z,-2.51
2019-01-24T05:43:58.888Z,-2.89
2019-01-24T05:46:47.034Z,-3.12
2019-01-24T05:49:34.761Z,-3.20
2019-01-24T05:52:22.287Z,-3.49
2019-01-24T05:55:14.572Z,-3.20
2019-01-24T05:58:02.050Z,-3.30
2019-01-24T06:00:49.895Z,-3.09
2019-01-24T06:03:37.539Z,-2.82
2019-01-24T06:06:25.040Z,-2.48
2019-01-24T06:09:12.625Z,-2.73
2019-01-24T06:12:00.304Z,-2.99
2019-01-24T06:14:47.721Z,-3.49
2019-01-24T06:17:35.450Z,-3.59
2019-01-24T06:20:22.979Z,-3.46
2019-01-24T06:23:11.250Z,-3.55
2019-01-24T06:25:58.336Z,-3.48
2019-01-24T06:28:45.792Z,-2.87
2019-01-24T06:31:32.877Z,-3.02
2019-01-24T06:34:19.997Z,-2.49
2019-01-24T06:37:07.623Z,-2.47
2019-01-24T06:39:54.743Z,-2.21
2019-01-24T06:42:42.369Z,-2.51
2019-01-24T06:45:29.997Z,-2.15
2019-01-24T06:48:17.526Z,-1.82
2019-01-24T06:51:05.252Z,-1.62
2019-01-24T06:53:52.609Z,-1.66
2019-01-24T06:56:39.901Z,-1.52
2019-01-24T06:59:27.425Z,-1.39
2019-01-24T07:02:14.743Z,-1.25
2019-01-24T07:05:02.269Z,-1.17
2019-01-24T07:07:49.694Z,-1.22
2019-01-24T07:10:37.225Z,-1.17
2019-01-24T07:13:24.951Z,-1.31
2019-01-24T07:16:12.480Z,-1.58
2019-01-24T07:19:01.859Z,-1.48
2019-01-24T07:21:49.175Z,-1.26
2019-01-24T07:24:36.797Z,-1.24
2019-01-24T07:27:23.815Z,-1.60
2019-01-24T07:30:16.616Z,-1.57
2019-01-24T07:33:03.601Z,-2.14
2019-01-24T07:35:50.898Z,-2.83
2019-01-24T07:38:38.115Z,-2.88
2019-01-24T07:41:25.641Z,-2.82
2019-01-24T07:44:13.069Z,-3.20
2019-01-24T07:47:00.591Z,-2.89
2019-01-24T07:49:48.015Z,-2.89
2019-01-24T07:52:35.744Z,-2.24
2019-01-24T07:55:23.376Z,-2.01
2019-01-24T07:58:10.900Z,-1.85
2019-01-24T08:00:58.065Z,-1.61
2019-01-24T08:06:47.338Z,-1.35
2019-01-24T08:09:34.773Z,-1.23
2019-01-24T08:12:22.186Z,-1.14
2019-01-24T08:15:12.257Z,-1.14
2019-01-24T08:17:59.699Z,-1.08
2019-01-24T08:20:47.459Z,-1.19
2019-01-24T08:23:34.548Z,-1.00
2019-01-24T08:26:22.788Z,-0.93
2019-01-24T08:29:10.311Z,-0.85
2019-01-24T08:31:57.735Z,-0.88
2019-01-24T08:34:45.467Z,-0.82
2019-01-24T08:37:33.200Z,-0.81
2019-01-24T08:40:24.890Z,-0.87
2019-01-24T08:43:12.390Z,-0.84
2019-01-24T08:45:59.669Z,-0.93
2019-01-24T08:48:46.994Z,-0.84
2019-01-24T08:51:34.517Z,-0.64
2019-01-24T08:54:21.841Z,-0.64
2019-01-24T08:57:08.958Z,-0.57
2019-01-24T08:59:56.585Z,-0.53
2019-01-24T09:02:44.007Z,-0.58
2019-01-24T09:05:31.265Z,-0.51
2019-01-24T09:08:18.751Z,-0.48
2019-01-24T09:11:06.684Z,-0.65
2019-01-24T09:13:53.600Z,-0.44
2019-01-24T09:16:40.616Z,-0.35
2019-01-24T09:19:28.551Z,-0.85
2019-01-24T09:22:15.979Z,-2.10
2019-01-24T09:25:05.299Z,-1.50
2019-01-24T09:27:52.563Z,-1.75
2019-01-24T09:30:40.499Z,-1.63
2019-01-24T09:33:27.414Z,-1.59
2019-01-24T09:36:14.865Z,-1.35
2019-01-24T09:39:02.056Z,-1.28
2019-01-24T09:41:49.683Z,-1.09
2019-01-24T09:44:37.514Z,-1.33
2019-01-24T09:47:24.939Z,-1.00
2019-01-24T09:50:15.853Z,-0.52
2019-01-24T09:53:03.370Z,-0.46
2019-01-24T09:55:51.204Z,-0.15
2019-01-24T09:58:38.833Z,-0.64
2019-01-24T10:01:26.565Z,-1.09
2019-01-24T10:04:14.089Z,-0.91
2019-01-24T10:07:01.513Z,-1.06
2019-01-24T10:09:49.245Z,-0.53
2019-01-24T10:12:36.987Z,-0.66
2019-01-24T10:15:24.710Z,-0.51
2019-01-24T10:18:12.641Z,-0.35
2019-01-24T10:21:00.375Z,-0.30
2019-01-24T10:23:47.696Z,-0.33
2019-01-24T10:26:35.632Z,-0.11
2019-01-24T10:29:23.055Z,0.45
2019-01-24T10:32:10.680Z,0.75
2019-01-24T10:34:58.106Z,0.92
2019-01-24T10:37:45.837Z,1.00
2019-01-24T10:40:33.982Z,0.96
2019-01-24T10:43:21.201Z,0.95
2019-01-24T10:46:09.028Z,1.00
2019-01-24T10:48:56.661Z,1.10
2019-01-24T10:51:44.495Z,1.40
2019-01-24T10:54:32.119Z,1.01
2019-01-24T10:57:19.648Z,0.78
2019-01-24T11:00:16.531Z,1.25
2019-01-24T11:03:06.319Z,1.52
2019-01-24T11:05:53.692Z,1.62
2019-01-24T11:08:40.812Z,1.67
2019-01-24T11:11:28.438Z,1.87
2019-01-24T11:14:15.453Z,1.83
2019-01-24T11:17:03.085Z,1.78
2019-01-24T11:19:51.426Z,1.94
2019-01-24T11:22:39.977Z,2.05
2019-01-24T11:25:28.221Z,2.12
2019-01-24T11:28:15.747Z,2.05
2019-01-24T11:31:03.480Z,2.11
2019-01-24T11:33:51.208Z,2.08
2019-01-24T11:36:38.325Z,2.24
2019-01-24T11:39:26.055Z,2.34
2019-01-24T11:42:13.180Z,2.39
2019-01-24T11:45:01.184Z,2.45
2019-01-24T11:47:49.661Z,2.43
2019-01-24T11:50:37.390Z,2.50
2019-01-24T11:53:24.608Z,2.55
2019-01-24T11:56:12.346Z,2.59
2019-01-24T11:58:59.662Z,2.65
2019-01-24T12:01:47.191Z,2.67
2019-01-24T12:04:35.024Z,2.68
2019-01-24T12:07:22.342Z,2.73
2019-01-24T12:10:15.807Z,2.74
2019-01-24T12:13:03.335Z,2.75
2019-01-24T12:15:50.558Z,2.69
2019-01-24T12:18:38.186Z,2.75
2019-01-24T12:21:25.299Z,2.77
2019-01-24T12:24:13.031Z,2.71
2019-01-24T12:27:00.564Z,2.58
2019-01-24T12:29:47.570Z,2.63
2019-01-24T12:32:35.406Z,2.41
2019-01-24T12:35:23.338Z,2.24
2019-01-24T12:38:10.870Z,2.21
2019-01-24T12:40:58.391Z,1.94
2019-01-24T12:43:46.234Z,2.21
2019-01-24T12:46:33.446Z,2.33
2019-01-24T12:49:21.280Z,1.86
2019-01-24T12:52:08.914Z,2.00
2019-01-24T12:54:56.352Z,2.29
2019-01-24T12:57:43.859Z,2.35
2019-01-24T13:00:34.152Z,2.18
2019-01-24T13:03:21.573Z,2.42
2019-01-24T13:06:09.100Z,2.50
2019-01-24T13:08:56.523Z,2.51
2019-01-24T13:11:44.256Z,2.59
2019-01-24T13:14:31.577Z,2.55
2019-01-24T13:17:19.003Z,2.46
2019-01-24T13:20:09.903Z,2.60
2019-01-24T13:22:57.635Z,2.61
2019-01-24T13:25:44.956Z,2.64
2019-01-24T13:28:32.791Z,2.62
2019-01-24T13:31:19.823Z,2.63
2019-01-24T13:34:07.538Z,2.55
2019-01-24T13:36:54.555Z,2.45
2019-01-24T13:39:41.975Z,2.40
2019-01-24T13:42:29.192Z,2.47
2019-01-24T13:45:22.221Z,2.42
2019-01-24T13:48:09.885Z,2.40
2019-01-24T13:50:57.738Z,2.52
2019-01-24T13:53:45.038Z,2.48
2019-01-24T13:56:32.630Z,2.47
2019-01-24T13:59:20.298Z,1.57
2019-01-24T14:02:07.507Z,2.47
2019-01-24T14:04:55.252Z,2.19
2019-01-24T14:07:42.869Z,1.76
2019-01-24T14:10:30.293Z,1.05
2019-01-24T14:13:18.128Z,1.17
2019-01-24T14:16:06.063Z,1.05
2019-01-24T14:18:53.511Z,1.08
2019-01-24T14:21:40.607Z,0.97
2019-01-24T14:24:28.128Z,0.90
2019-01-24T14:27:15.409Z,0.83
2019-01-24T14:30:03.286Z,1.08
2019-01-24T14:32:50.809Z,1.35
2019-01-24T14:35:38.132Z,1.59
2019-01-24T14:38:25.761Z,1.78
2019-01-24T14:41:13.704Z,1.85
2019-01-24T14:44:20.253Z,1.90
2019-01-24T14:47:07.574Z,1.96
2019-01-24T14:49:55.471Z,1.98
2019-01-24T14:52:43.174Z,1.88
2019-01-24T14:55:30.665Z,1.70
2019-01-24T14:58:18.295Z,1.44
2019-01-24T15:01:06.970Z,0.88
2019-01-24T15:03:54.680Z,0.60
2019-01-24T15:06:42.308Z,0.31
2019-01-24T15:09:29.834Z,0.51
2019-01-24T15:12:17.462Z,0.78
2019-01-24T15:15:07.858Z,0.60
2019-01-24T15:17:55.408Z,0.69
2019-01-24T15:20:42.983Z,0.75
2019-01-24T15:23:31.691Z,0.54
2019-01-24T15:26:19.500Z,0.88
2019-01-24T15:29:07.022Z,1.04
2019-01-24T15:31:54.141Z,1.07
2019-01-24T15:34:42.193Z,1.13
2019-01-24T15:37:30.015Z,1.25
2019-01-24T15:40:23.658Z,1.35
2019-01-24T15:43:10.804Z,1.40
2019-01-24T15:45:58.136Z,1.47
2019-01-24T15:48:45.856Z,1.48
2019-01-24T15:51:32.966Z,1.48
2019-01-24T15:54:20.082Z,1.49
2019-01-24T15:57:07.915Z,1.52
2019-01-24T15:59:55.650Z,1.46
2019-01-24T16:02:43.198Z,1.44
2019-01-24T16:05:30.699Z,1.44
2019-01-24T16:08:18.123Z,1.47
2019-01-24T16:11:08.516Z,1.42
2019-01-24T16:14:03.850Z,1.36
2019-01-24T16:16:55.094Z,1.27
2019-01-24T16:19:42.465Z,1.32
2019-01-24T16:22:30.098Z,1.40
2019-01-24T16:25:19.813Z,1.24
2019-01-24T16:28:07.710Z,1.17
2019-01-24T16:30:56.625Z,1.05
2019-01-24T16:33:44.188Z,1.02
2019-01-24T16:36:32.536Z,0.58
2019-01-24T16:39:20.165Z,0.50
2019-01-24T16:42:07.895Z,0.57
2019-01-24T16:44:55.336Z,0.62
2019-01-24T16:47:42.437Z,0.83
2019-01-24T16:50:30.166Z,0.81
2019-01-24T16:53:17.597Z,0.59
2019-01-24T16:56:05.740Z,0.57
2019-01-24T16:58:52.748Z,0.42
2019-01-24T17:01:40.286Z,0.59
2019-01-24T17:04:27.639Z,0.57
2019-01-24T17:07:15.329Z,0.77
2019-01-24T17:10:03.271Z,0.88
2019-01-24T17:12:51.304Z,0.91
2019-01-24T17:15:38.522Z,1.02
2019-01-24T17:18:26.352Z,1.09
2019-01-24T17:21:14.489Z,1.12
2019-01-24T17:24:02.021Z,1.14
2019-01-24T17:26:49.751Z,1.23
2019-01-24T17:29:37.278Z,1.25
2019-01-24T17:32:24.923Z,1.23
2019-01-24T17:35:12.676Z,1.21
2019-01-24T17:38:00.164Z,1.20
2019-01-24T17:40:47.592Z,1.25
2019-01-24T17:43:35.219Z,1.30
2019-01-24T17:46:22.649Z,1.28
2019-01-24T17:49:10.475Z,1.28
2019-01-24T17:51:58.202Z,1.31
2019-01-24T17:54:45.750Z,1.29
2019-01-24T17:57:33.258Z,1.30
2019-01-24T18:00:23.405Z,1.31
2019-01-24T18:03:11.081Z,1.31
2019-01-24T18:05:58.496Z,1.39
2019-01-24T18:08:46.125Z,1.42
2019-01-24T18:11:36.928Z,1.38
2019-01-24T18:14:24.460Z,1.30
2019-01-24T18:17:16.333Z,1.26
2019-01-24T18:20:05.444Z,1.17
2019-01-24T18:22:52.971Z,1.15
2019-01-24T18:25:40.399Z,1.15
2019-01-24T18:28:28.127Z,1.15
2019-01-24T18:31:16.065Z,1.19
2019-01-24T18:34:04.115Z,1.16
2019-01-24T18:36:51.658Z,1.17
2019-01-24T18:39:39.051Z,0.98
2019-01-24T18:42:26.582Z,1.00
2019-01-24T18:45:22.457Z,1.04
2019-01-24T18:48:10.232Z,1.04
2019-01-24T18:50:57.861Z,1.04
2019-01-24T18:53:45.287Z,1.01
2019-01-24T18:56:32.507Z,1.03
2019-01-24T18:59:20.027Z,1.03
2019-01-24T19:02:07.785Z,1.07
2019-01-24T19:04:55.598Z,1.09
2019-01-24T19:07:43.585Z,1.04
2019-01-24T19:10:31.270Z,1.02
2019-01-24T19:13:19.358Z,0.93
2019-01-24T19:16:07.249Z,0.87
2019-01-24T19:18:55.997Z,0.89
2019-01-24T19:21:44.952Z,1.00
2019-01-24T19:24:32.410Z,1.03
2019-01-24T19:27:19.702Z,0.93
2019-01-24T19:30:25.508Z,0.88
2019-01-24T19:33:13.487Z,0.86
2019-01-24T19:36:00.634Z,0.81
2019-01-24T19:38:53.077Z,0.79
2019-01-24T19:41:37.602Z,0.86
2019-01-24T19:44:25.386Z,0.81
2019-01-24T19:47:13.242Z,0.80
2019-01-24T19:50:01.993Z,0.83
2019-01-24T19:52:49.471Z,0.87
2019-01-24T19:55:37.787Z,0.87
2019-01-24T19:58:25.643Z,0.90
2019-01-24T20:01:13.570Z,0.93
2019-01-24T20:04:00.886Z,0.92
2019-01-24T20:06:49.276Z,0.85
2019-01-24T20:09:37.266Z,0.89
2019-01-24T20:12:24.694Z,0.87
2019-01-24T20:15:15.337Z,0.82
2019-01-24T20:18:03.030Z,0.81
2019-01-24T20:20:50.444Z,0.78
2019-01-24T20:23:37.580Z,0.81
2019-01-24T20:26:25.403Z,0.80
2019-01-24T20:29:13.025Z,0.77
2019-01-24T20:32:00.739Z,0.74
2019-01-24T20:34:48.113Z,0.73
2019-01-24T20:37:35.908Z,0.71
2019-01-24T20:40:23.697Z,0.73
2019-01-24T20:43:13.082Z,0.72
2019-01-24T20:46:00.222Z,0.74
2019-01-24T20:48:47.758Z,0.77
2019-01-24T20:51:35.280Z,0.74
2019-01-24T20:54:23.014Z,0.69
2019-01-24T20:57:10.541Z,0.63
2019-01-24T20:59:58.171Z,0.58
2019-01-24T21:02:47.133Z,0.60
2019-01-24T21:05:35.371Z,0.55
2019-01-24T21:08:23.411Z,0.56
2019-01-24T21:11:10.946Z,0.62
2019-01-24T21:13:58.358Z,0.58
2019-01-24T21:16:45.781Z,0.56
2019-01-24T21:19:33.129Z,0.52
2019-01-24T21:22:21.155Z,0.53
2019-01-24T21:25:11.561Z,0.53
2019-01-24T21:27:59.367Z,0.46
2019-01-24T21:30:47.308Z,0.50
2019-01-24T21:33:36.272Z,0.50
2019-01-24T21:36:25.144Z,0.47
2019-01-24T21:39:14.730Z,0.48
2019-01-24T21:42:02.224Z,0.43
2019-01-24T21:44:52.484Z,0.43
2019-01-24T21:47:39.527Z,0.43
2019-01-24T21:50:31.974Z,0.44
2019-01-24T21:53:20.726Z,0.46
2019-01-24T21:56:09.179Z,0.38
2019-01-24T21:58:56.612Z,0.37
2019-01-24T22:01:44.328Z,0.36
2019-01-24T22:04:32.576Z,0.35
2019-01-24T22:07:20.305Z,0.32
2019-01-24T22:10:11.206Z,0.33
2019-01-24T22:12:59.347Z,0.36
2019-01-24T22:15:47.180Z,0.33
2019-01-24T22:18:34.915Z,0.38
2019-01-24T22:21:22.852Z,0.37
2019-01-24T22:24:11.297Z,0.40
2019-01-24T22:26:59.334Z,0.40
2019-01-24T22:29:46.862Z,0.38
2019-01-24T22:32:34.593Z,0.38
2019-01-24T22:35:22.324Z,0.40
2019-01-24T22:38:09.962Z,0.38
2019-01-24T22:40:57.380Z,0.37
2019-01-24T22:43:44.805Z,0.38
2019-01-24T22:46:32.532Z,0.42
2019-01-24T22:49:19.751Z,0.40
2019-01-24T22:52:07.067Z,0.40
2019-01-24T22:54:54.290Z,0.42
2019-01-24T22:57:41.789Z,0.38
2019-01-24T23:00:53.920Z,0.42
2019-01-24T23:03:43.765Z,0.46
2019-01-24T23:06:31.120Z,0.39
2019-01-24T23:09:18.446Z,0.37
2019-01-24T23:12:05.966Z,0.36
2019-01-24T23:14:53.391Z,0.43
2019-01-24T23:17:41.023Z,0.46
2019-01-24T23:20:28.714Z,0.43
2019-01-24T23:23:16.284Z,0.41
2019-01-24T23:26:03.907Z,0.40
2019-01-24T23:28:51.231Z,-0.78
2019-01-24T23:31:39.063Z,0.41
2019-01-24T23:34:26.281Z,0.42
2019-01-24T23:37:14.322Z,0.43
2019-01-24T23:40:01.471Z,0.44
2019-01-24T23:42:49.065Z,0.44
2019-01-24T23:45:36.489Z,0.47
2019-01-24T23:48:24.135Z,0.48
2019-01-24T23:51:11.653Z,0.48
2019-01-24T23:53:59.173Z,0.49
2019-01-24T23:56:46.808Z,0.49
2019-01-24T23:59:34.633Z,0.49
